createdAt,value
2023-05-10T00:01:53.331Z,94552.19
2023-05-10T00:04:21.172Z,94530.06
2023-05-10T00:06:49.129Z,94533.19
2023-05-10T00:09:16.971Z,94543.16
2023-05-10T00:11:44.790Z,94537.91
2023-05-10T00:14:13.042Z,94533.97
2023-05-10T00:16:41.493Z,94535.31
2023-05-10T00:19:10.702Z,94525.91
2023-05-10T00:21:38.568Z,94528.16
2023-05-10T00:24:07.001Z,94535.31
2023-05-10T00:26:34.782Z,94521.44
2023-05-10T00:29:03.084Z,94526.69
2023-05-10T00:31:30.875Z,94523.31
2023-05-10T00:33:59.095Z,94521.09
2023-05-10T00:36:28.624Z,94522.00
2023-05-10T00:38:56.524Z,94523.66
2023-05-10T00:41:24.897Z,94516.28
2023-05-10T00:43:52.995Z,94520.31
2023-05-10T00:46:20.895Z,94522.88
2023-05-10T00:48:49.024Z,94521.00
2023-05-10T00:51:17.072Z,94514.59
2023-05-10T00:53:47.992Z,94512.94
2023-05-10T00:56:16.253Z,94517.28
2023-05-10T00:58:44.359Z,94515.72
2023-05-10T01:01:12.786Z,94515.06
2023-05-10T01:03:42.507Z,94515.50
2023-05-10T01:06:10.941Z,94523.44
2023-05-10T01:08:39.098Z,94522.22
2023-05-10T01:11:08.490Z,94522.00
2023-05-10T01:13:40.886Z,94518.53
2023-05-10T01:16:09.225Z,94518.88
2023-05-10T01:18:40.395Z,94515.50
2023-05-10T01:21:19.346Z,94516.63
2023-05-10T01:24:11.895Z,94510.38
2023-05-10T01:27:22.055Z,94517.53
2023-05-10T01:30:23.364Z,94508.78
2023-05-10T01:33:00.221Z,94517.06
2023-05-10T01:35:36.894Z,94517.19
2023-05-10T01:38:13.775Z,94520.88
2023-05-10T01:40:49.044Z,94519.19
2023-05-10T01:43:23.549Z,94510.47
2023-05-10T01:46:05.527Z,94516.84
2023-05-10T01:48:35.560Z,94520.28
2023-05-10T01:51:04.570Z,94514.38
2023-05-10T01:53:34.597Z,94508.91
2023-05-10T01:56:03.789Z,94512.47
2023-05-10T01:58:34.811Z,94503.50
2023-05-10T02:01:05.417Z,94510.56
2023-05-10T02:03:38.115Z,94508.91
2023-05-10T02:06:07.789Z,94507.34
2023-05-10T02:08:38.025Z,94510.00
2023-05-10T02:11:07.309Z,94508.66
2023-05-10T02:13:37.385Z,94520.72
2023-05-10T02:16:07.060Z,94511.47
2023-05-10T02:18:37.862Z,94514.72
2023-05-10T02:21:06.529Z,94520.50
2023-05-10T02:23:34.878Z,94515.94
2023-05-10T02:26:04.769Z,94515.72
2023-05-10T02:28:34.591Z,94517.28
2023-05-10T02:31:03.558Z,94516.63
2023-05-10T02:33:33.633Z,94523.31
2023-05-10T02:36:03.756Z,94516.06
2023-05-10T02:38:34.607Z,94512.34
2023-05-10T02:41:04.154Z,94516.84
2023-05-10T02:43:34.305Z,94526.00
2023-05-10T02:46:02.417Z,94518.41
2023-05-10T02:48:30.788Z,94519.19
2023-05-10T02:51:09.433Z,94522.31
2023-05-10T02:53:40.536Z,94518.63
2023-05-10T02:56:16.022Z,94525.69
2023-05-10T02:58:43.906Z,94530.94
2023-05-10T03:01:11.871Z,94529.72
2023-05-10T03:03:40.074Z,94521.22
2023-05-10T03:06:10.551Z,94525.59
2023-05-10T03:08:38.774Z,94531.16
2023-05-10T03:11:22.861Z,94538.09
2023-05-10T03:13:58.773Z,94539.22
2023-05-10T03:16:31.675Z,94535.41
2023-05-10T03:19:07.472Z,94540.69
2023-05-10T03:21:42.445Z,94541.47
2023-05-10T03:24:16.304Z,94543.25
2023-05-10T03:26:46.815Z,94544.13
2023-05-10T03:29:19.654Z,94549.97
2023-05-10T03:31:47.850Z,94541.78
2023-05-10T03:34:16.554Z,94543.22
2023-05-10T03:36:45.889Z,94543.66
2023-05-10T03:39:13.688Z,94538.19
2023-05-10T03:41:42.486Z,94551.84
2023-05-10T03:44:10.464Z,94549.38
2023-05-10T03:46:38.315Z,94554.63
2023-05-10T03:49:06.501Z,94548.16
2023-05-10T03:51:34.371Z,94551.50
2023-05-10T03:54:03.733Z,94562.13
2023-05-10T03:56:31.759Z,94559.78
2023-05-10T03:58:59.654Z,94561.38
2023-05-10T04:01:27.583Z,94567.63
2023-05-10T04:03:55.520Z,94561.78
2023-05-10T04:06:23.463Z,94564.56
2023-05-10T04:08:52.410Z,94565.22
2023-05-10T04:11:22.919Z,94557.56
2023-05-10T04:13:50.800Z,94558.78
2023-05-10T04:16:18.623Z,94572.28
2023-05-10T04:18:46.794Z,94566.56
2023-05-10T04:21:14.827Z,94560.50
2023-05-10T04:23:43.295Z,94568.16
2023-05-10T04:26:11.182Z,94567.34
2023-05-10T04:28:40.339Z,94562.91
2023-05-10T04:31:10.453Z,94562.88
2023-05-10T04:33:38.645Z,94568.16
2023-05-10T04:36:07.350Z,94565.91
2023-05-10T04:38:35.131Z,94579.66
2023-05-10T04:41:07.220Z,94582.69
2023-05-10T04:43:35.299Z,94586.66
2023-05-10T04:46:04.763Z,94588.44
2023-05-10T04:48:32.748Z,94596.91
2023-05-10T04:51:00.642Z,94601.75
2023-05-10T04:53:28.483Z,94597.50
2023-05-10T04:55:56.297Z,94603.28
2023-05-10T04:58:24.200Z,94607.72
2023-05-10T05:00:52.010Z,94618.22
2023-05-10T05:03:21.257Z,94611.34
2023-05-10T05:05:49.109Z,94608.72
2023-05-10T05:08:16.913Z,94614.06
2023-05-10T05:10:44.713Z,94608.72
2023-05-10T05:13:14.718Z,94606.09
2023-05-10T05:15:42.646Z,94615.84
2023-05-10T05:18:10.450Z,94611.72
2023-05-10T05:20:39.690Z,94613.13
2023-05-10T05:23:07.506Z,94605.59
2023-05-10T05:25:35.359Z,94611.16
2023-05-10T05:28:03.212Z,94618.59
2023-05-10T05:30:33.661Z,94614.00
2023-05-10T05:33:01.488Z,94632.13
2023-05-10T05:35:29.297Z,94635.03
2023-05-10T05:37:58.461Z,94633.38
2023-05-10T05:40:26.476Z,94660.03
2023-05-10T05:42:54.281Z,94637.63
2023-05-10T05:45:22.166Z,94649.44
2023-05-10T05:47:50.636Z,94653.31
2023-05-10T05:50:18.745Z,94654.69
2023-05-10T05:52:46.600Z,94655.94
2023-05-10T05:55:17.121Z,94645.16
2023-05-10T05:57:45.199Z,94647.34
2023-05-10T06:00:13.912Z,94647.47
2023-05-10T06:02:41.730Z,94642.97
2023-05-10T06:05:10.631Z,94637.84
2023-05-10T06:07:38.437Z,94639.47
2023-05-10T06:10:07.658Z,94644.47
2023-05-10T06:12:37.108Z,94653.25
2023-05-10T06:15:06.034Z,94650.19
2023-05-10T06:17:33.886Z,94654.25
2023-05-10T06:20:01.788Z,94650.13
2023-05-10T06:22:29.620Z,94661.31
2023-05-10T06:24:57.453Z,94662.34
2023-05-10T06:27:25.450Z,94654.16
2023-05-10T06:30:02.033Z,94642.28
2023-05-10T06:32:33.730Z,94638.03
2023-05-10T06:35:01.551Z,94593.47
2023-05-10T06:37:29.389Z,94666.22
2023-05-10T06:39:57.261Z,94700.72
2023-05-10T06:42:26.373Z,94701.38
2023-05-10T06:44:55.572Z,94711.09
2023-05-10T06:47:23.425Z,94716.16
2023-05-10T06:49:54.561Z,94726.13
2023-05-10T06:52:22.858Z,94721.94
2023-05-10T06:54:50.856Z,94726.00
2023-05-10T06:57:31.254Z,94717.47
2023-05-10T07:00:03.359Z,94733.38
2023-05-10T07:02:31.278Z,94727.66
2023-05-10T07:05:03.200Z,94748.25
2023-05-10T07:07:34.012Z,94743.34
2023-05-10T07:10:01.810Z,94741.09
2023-05-10T07:12:29.689Z,94752.47
2023-05-10T07:14:57.485Z,94751.03
2023-05-10T07:17:26.750Z,94745.41
2023-05-10T07:19:54.812Z,94736.78
2023-05-10T07:22:23.030Z,94766.47
2023-05-10T07:24:50.933Z,94754.03
2023-05-10T07:27:18.752Z,94761.09
2023-05-10T07:29:46.621Z,94755.47
2023-05-10T07:32:14.564Z,94763.78
2023-05-10T07:34:43.793Z,94773.25
2023-05-10T07:37:11.637Z,94768.09
2023-05-10T07:39:39.521Z,94774.63
2023-05-10T07:42:08.193Z,94768.09
2023-05-10T07:44:36.054Z,94786.72
2023-05-10T07:47:03.863Z,94783.72
2023-05-10T07:49:31.657Z,94776.78
2023-05-10T07:52:01.072Z,94779.56
2023-05-10T07:54:28.863Z,94785.75
2023-05-10T07:56:56.820Z,94791.09
2023-05-10T07:59:25.519Z,94790.13
2023-05-10T08:01:53.434Z,94784.47
2023-05-10T08:04:21.371Z,94790.88
2023-05-10T08:06:49.273Z,94786.84
2023-05-10T08:09:25.127Z,94789.66
2023-05-10T08:11:53.330Z,94798.53
2023-05-10T08:14:21.474Z,94795.44
2023-05-10T08:16:49.589Z,94789.53
2023-05-10T08:19:19.961Z,94798.22
2023-05-10T08:21:47.873Z,94792.09
2023-05-10T08:24:15.739Z,94790.03
2023-05-10T08:26:44.936Z,94792.28
2023-05-10T08:29:12.765Z,94797.38
2023-05-10T08:31:40.765Z,94817.44
2023-05-10T08:34:08.623Z,94793.72
2023-05-10T08:36:37.123Z,94806.97
2023-05-10T08:39:07.725Z,94806.63
2023-05-10T08:41:41.516Z,94795.72
2023-05-10T08:44:11.287Z,94808.56
2023-05-10T08:46:43.499Z,94799.00
2023-05-10T08:49:15.114Z,94803.78
2023-05-10T08:51:48.561Z,94798.84
2023-05-10T08:54:17.109Z,94792.53
2023-05-10T08:56:45.045Z,94810.13
2023-05-10T08:59:15.125Z,94808.75
2023-05-10T09:01:46.534Z,94803.56
2023-05-10T09:04:15.080Z,94815.72
2023-05-10T09:06:43.570Z,94803.22
2023-05-10T09:09:12.043Z,94802.31
2023-05-10T09:11:39.990Z,94805.34
2023-05-10T09:14:07.976Z,94815.84
2023-05-10T09:16:37.201Z,94827.47
2023-05-10T09:19:05.129Z,94827.81
2023-05-10T09:21:33.473Z,94826.59
2023-05-10T09:24:05.517Z,94814.78
2023-05-10T09:26:33.429Z,94813.13
2023-05-10T09:29:03.568Z,94812.03
2023-05-10T09:31:48.900Z,94819.88
2023-05-10T09:34:21.257Z,94811.75
2023-05-10T09:36:54.458Z,94825.84
2023-05-10T09:39:22.990Z,94824.16
2023-05-10T09:41:50.820Z,94824.31
2023-05-10T09:44:19.813Z,94823.97
2023-05-10T09:46:53.618Z,94833.91
2023-05-10T09:49:21.777Z,94821.84
2023-05-10T09:51:49.821Z,94818.94
2023-05-10T09:54:18.408Z,94817.25
2023-05-10T09:56:46.270Z,94824.56
2023-05-10T09:59:14.549Z,94820.97
2023-05-10T10:01:43.288Z,94827.03
2023-05-10T10:04:12.650Z,94822.84
2023-05-10T10:06:41.401Z,94819.69
2023-05-10T10:09:10.239Z,94818.53
2023-05-10T10:11:39.505Z,94817.78
2023-05-10T10:14:07.625Z,94823.19
2023-05-10T10:16:35.461Z,94820.84
2023-05-10T10:19:03.577Z,94812.94
2023-05-10T10:21:34.934Z,94814.78
2023-05-10T10:24:06.217Z,94811.66
2023-05-10T10:26:36.016Z,94814.22
2023-05-10T10:29:14.696Z,94809.63
2023-05-10T10:31:47.131Z,94812.69
2023-05-10T10:34:27.000Z,94815.16
2023-05-10T10:36:57.232Z,94819.53
2023-05-10T10:39:26.969Z,94807.09
2023-05-10T10:41:56.261Z,94806.03
2023-05-10T10:44:41.534Z,94807.53
2023-05-10T10:47:30.820Z,94807.31
2023-05-10T10:50:06.453Z,94822.31
2023-05-10T10:52:37.111Z,94798.59
2023-05-10T10:55:08.280Z,94770.19
2023-05-10T10:57:45.775Z,94760.38
2023-05-10T11:00:21.987Z,94732.13
2023-05-10T11:02:52.447Z,94714.19
2023-05-10T11:05:47.961Z,94710.00
2023-05-10T11:08:19.621Z,94683.44
2023-05-10T11:11:11.290Z,94679.25
2023-05-10T11:13:44.033Z,94675.75
2023-05-10T11:16:17.725Z,94683.84
2023-05-10T11:19:05.493Z,94693.84
2023-05-10T11:21:34.523Z,94704.94
2023-05-10T11:24:07.185Z,94724.09
2023-05-10T11:26:39.564Z,94723.13
2023-05-10T11:29:07.680Z,94741.16
2023-05-10T11:31:35.756Z,94734.84
2023-05-10T11:34:03.858Z,94685.38
2023-05-10T11:36:34.926Z,94681.34
2023-05-10T11:39:05.508Z,94676.44
2023-05-10T11:41:33.708Z,94687.25
2023-05-10T11:44:01.876Z,94680.38
2023-05-10T11:46:30.463Z,94684.69
2023-05-10T11:49:04.974Z,94693.06
2023-05-10T11:51:36.627Z,94718.47
2023-05-10T11:54:08.518Z,94720.84
2023-05-10T11:56:36.370Z,94733.47
2023-05-10T11:59:06.753Z,94726.44
2023-05-10T12:01:35.112Z,94732.31
2023-05-10T12:04:03.902Z,94739.22
2023-05-10T12:06:34.924Z,94745.47
2023-05-10T12:09:09.505Z,94732.41
2023-05-10T12:11:43.516Z,94747.31
2023-05-10T12:14:13.369Z,94742.53
2023-05-10T12:16:41.615Z,94759.34
2023-05-10T12:19:10.134Z,94764.31
2023-05-10T12:21:39.780Z,94752.22
2023-05-10T12:24:09.727Z,94750.34
2023-05-10T12:26:38.130Z,94749.06
2023-05-10T12:29:16.664Z,94771.22
2023-05-10T12:31:55.764Z,94751.47
2023-05-10T12:34:28.476Z,94776.09
2023-05-10T12:36:59.306Z,94772.94
2023-05-10T12:39:39.118Z,94775.72
2023-05-10T12:42:07.325Z,94784.84
2023-05-10T12:44:35.202Z,94778.44
2023-05-10T12:47:03.028Z,94792.34
2023-05-10T12:49:30.896Z,94785.44
2023-05-10T12:51:58.713Z,94791.63
2023-05-10T12:54:28.836Z,94811.34
2023-05-10T12:56:56.687Z,94817.91
2023-05-10T12:59:24.519Z,94814.50
2023-05-10T13:01:52.441Z,94807.31
2023-05-10T13:04:20.483Z,94807.63
2023-05-10T13:06:48.484Z,94798.06
2023-05-10T13:09:16.471Z,94799.72
2023-05-10T13:11:46.257Z,94813.56
2023-05-10T13:14:14.349Z,94817.59
2023-05-10T13:16:42.364Z,94826.38
2023-05-10T13:19:10.482Z,94816.94
2023-05-10T13:21:38.437Z,94813.72
2023-05-10T13:24:06.742Z,94812.78
2023-05-10T13:26:34.682Z,94802.28
2023-05-10T13:29:04.199Z,94808.94
2023-05-10T13:31:32.083Z,94806.78
2023-05-10T13:33:59.978Z,94816.28
2023-05-10T13:36:27.889Z,94811.56
2023-05-10T13:38:55.846Z,94809.22
2023-05-10T13:41:23.792Z,94818.44
2023-05-10T13:43:51.579Z,94810.38
2023-05-10T13:46:21.064Z,94813.38
2023-05-10T13:48:48.960Z,94831.81
2023-05-10T13:51:16.900Z,94837.88
2023-05-10T13:53:45.089Z,94822.84
2023-05-10T13:56:13.010Z,94824.72
2023-05-10T13:58:40.872Z,94814.97
2023-05-10T14:01:08.739Z,94812.38
2023-05-10T14:03:38.085Z,94814.59
2023-05-10T14:06:06.328Z,94810.25
2023-05-10T14:08:34.205Z,94817.22
2023-05-10T14:11:02.038Z,94812.72
2023-05-10T14:13:30.006Z,94832.72
2023-05-10T14:15:57.868Z,94826.00
2023-05-10T14:18:25.842Z,94829.28
2023-05-10T14:20:55.700Z,94827.41
2023-05-10T14:23:25.748Z,94825.53
2023-05-10T14:25:53.846Z,94817.69
2023-05-10T14:28:21.959Z,94821.00
2023-05-10T14:30:50.066Z,94805.09
2023-05-10T14:33:18.576Z,94821.97
2023-05-10T14:35:47.550Z,94828.50
2023-05-10T14:38:17.199Z,94836.22
2023-05-10T14:40:45.118Z,94832.25
2023-05-10T14:43:13.052Z,94842.56
2023-05-10T14:45:41.161Z,94833.59
2023-05-10T14:48:12.230Z,94823.00
2023-05-10T14:50:40.702Z,94821.94
2023-05-10T14:53:08.760Z,94831.66
2023-05-10T14:55:39.325Z,94813.59
2023-05-10T14:58:07.374Z,94831.06
2023-05-10T15:00:35.357Z,94828.09
2023-05-10T15:03:04.618Z,94834.25
2023-05-10T15:05:33.010Z,94826.44
2023-05-10T15:08:01.244Z,94823.09
2023-05-10T15:10:29.211Z,94812.13
2023-05-10T15:12:58.356Z,94808.00
2023-05-10T15:15:26.497Z,94829.13
2023-05-10T15:17:54.493Z,94829.06
2023-05-10T15:20:22.453Z,94833.38
2023-05-10T15:22:50.500Z,94837.78
2023-05-10T15:25:18.571Z,94836.47
2023-05-10T15:27:46.875Z,94844.84
2023-05-10T15:30:16.539Z,94849.38
2023-05-10T15:32:44.483Z,94838.94
2023-05-10T15:35:12.487Z,94842.88
2023-05-10T15:37:43.374Z,94847.66
2023-05-10T15:40:12.000Z,94843.00
2023-05-10T15:42:39.817Z,94837.34
2023-05-10T15:45:10.769Z,94846.22
2023-05-10T15:47:41.138Z,94847.66
2023-05-10T15:50:09.678Z,94840.31
2023-05-10T15:52:37.699Z,94848.19
2023-05-10T15:55:12.654Z,94847.22
2023-05-10T15:57:41.402Z,94848.97
2023-05-10T16:00:10.906Z,94845.22
2023-05-10T16:02:43.294Z,94859.50
2023-05-10T16:05:11.377Z,94845.41
2023-05-10T16:07:40.200Z,94854.53
2023-05-10T16:10:10.163Z,94850.97
2023-05-10T16:12:38.184Z,94855.66
2023-05-10T16:15:07.055Z,94867.63
2023-05-10T16:17:34.974Z,94863.84
2023-05-10T16:20:04.716Z,94855.13
2023-05-10T16:22:32.569Z,94860.00
2023-05-10T16:25:00.776Z,94869.00
2023-05-10T16:27:30.359Z,94877.56
2023-05-10T16:29:58.382Z,94875.28
2023-05-10T16:32:26.562Z,94878.28
2023-05-10T16:34:54.649Z,94871.78
2023-05-10T16:37:24.147Z,94876.31
2023-05-10T16:39:52.575Z,94882.16
2023-05-10T16:42:20.648Z,94877.41
2023-05-10T16:44:48.646Z,94871.84
2023-05-10T16:47:16.567Z,94881.84
2023-05-10T16:49:44.488Z,94880.03
2023-05-10T16:52:12.590Z,94889.34
2023-05-10T16:54:42.370Z,94883.81
2023-05-10T16:57:10.370Z,94882.03
2023-05-10T16:59:38.309Z,94892.75
2023-05-10T17:02:06.467Z,94879.09
2023-05-10T17:04:34.490Z,94891.19
2023-05-10T17:07:02.480Z,94888.22
2023-05-10T17:09:30.358Z,94898.31
2023-05-10T17:11:59.568Z,94918.47
2023-05-10T17:14:27.957Z,94912.91
2023-05-10T17:16:56.023Z,94919.06
2023-05-10T17:19:26.236Z,94916.09
2023-05-10T17:21:54.296Z,94905.66
2023-05-10T17:24:22.257Z,94923.00
2023-05-10T17:26:50.162Z,94928.91
2023-05-10T17:29:19.506Z,94927.34
2023-05-10T17:31:47.516Z,94937.19
2023-05-10T17:34:17.020Z,94925.16
2023-05-10T17:36:44.992Z,94930.50
2023-05-10T17:39:12.824Z,94935.59
2023-05-10T17:41:40.898Z,94928.50
2023-05-10T17:44:08.956Z,94930.28
2023-05-10T17:46:38.090Z,94929.50
2023-05-10T17:49:06.128Z,94929.13
2023-05-10T17:51:35.779Z,94938.34
2023-05-10T17:54:03.696Z,94926.31
2023-05-10T17:56:31.959Z,94926.94
2023-05-10T17:59:05.498Z,94942.69
2023-05-10T18:01:35.616Z,94931.66
2023-05-10T18:04:06.145Z,94919.84
2023-05-10T18:06:37.292Z,94925.94
2023-05-10T18:09:07.368Z,94931.47
2023-05-10T18:11:36.078Z,94927.13
2023-05-10T18:14:04.212Z,94940.31
2023-05-10T18:16:32.406Z,94945.22
2023-05-10T18:19:00.457Z,94940.69
2023-05-10T18:21:29.781Z,94943.66
2023-05-10T18:23:57.852Z,94942.66
2023-05-10T18:26:26.093Z,94936.16
2023-05-10T18:28:53.909Z,94937.94
2023-05-10T18:31:22.031Z,94934.59
2023-05-10T18:33:50.067Z,94923.34
2023-05-10T18:36:18.120Z,94938.94
2023-05-10T18:38:47.583Z,94936.00
2023-05-10T18:41:15.503Z,94952.34
2023-05-10T18:43:43.464Z,94938.16
2023-05-10T18:46:11.474Z,94940.66
2023-05-10T18:48:43.044Z,94954.47
2023-05-10T18:51:12.532Z,94935.94
2023-05-10T18:53:40.563Z,94945.81
2023-05-10T18:56:10.135Z,94941.25
2023-05-10T18:58:38.586Z,94952.28
2023-05-10T19:01:09.150Z,94925.91
2023-05-10T19:03:37.162Z,94942.84
2023-05-10T19:06:05.368Z,94954.09
2023-05-10T19:08:33.379Z,94940.28
2023-05-10T19:11:02.026Z,94955.06
2023-05-10T19:13:31.436Z,94948.75
2023-05-10T19:16:06.664Z,94954.31
2023-05-10T19:18:35.002Z,94940.09
2023-05-10T19:21:04.667Z,94970.44
2023-05-10T19:23:33.696Z,94958.00
2023-05-10T19:26:04.827Z,94983.22
2023-05-10T19:28:35.457Z,94963.53
2023-05-10T19:31:07.760Z,94969.25
2023-05-10T19:33:36.139Z,94963.13
2023-05-10T19:36:04.430Z,94953.44
2023-05-10T19:38:32.472Z,94963.53
2023-05-10T19:41:02.142Z,94961.56
2023-05-10T19:43:34.068Z,94962.53
2023-05-10T19:46:04.136Z,94963.75
2023-05-10T19:48:32.645Z,94966.28
2023-05-10T19:51:01.978Z,94967.91
2023-05-10T19:53:30.189Z,94964.34
2023-05-10T19:56:04.740Z,94957.44
2023-05-10T19:58:33.313Z,94962.34
2023-05-10T20:01:01.502Z,94961.34
2023-05-10T20:03:31.183Z,94954.25
2023-05-10T20:05:59.450Z,94958.22
2023-05-10T20:08:27.378Z,94942.44
2023-05-10T20:10:57.851Z,94962.53
2023-05-10T20:13:26.079Z,94955.66
2023-05-10T20:15:57.122Z,94962.34
2023-05-10T20:18:28.120Z,94952.50
2023-05-10T20:21:00.127Z,94948.53
2023-05-10T20:23:29.666Z,94959.00
2023-05-10T20:25:57.737Z,94960.97
2023-05-10T20:28:27.232Z,94954.88
2023-05-10T20:30:56.321Z,94965.50
2023-05-10T20:33:24.648Z,94966.09
2023-05-10T20:35:52.831Z,94966.25
2023-05-10T20:38:22.939Z,94965.88
2023-05-10T20:40:51.143Z,94953.84
2023-05-10T20:43:20.718Z,94962.53
2023-05-10T20:45:49.221Z,94960.72
2023-05-10T20:48:17.687Z,94961.53
2023-05-10T20:50:45.746Z,94962.13
2023-05-10T20:53:14.782Z,94968.25
2023-05-10T20:55:44.149Z,94955.06
2023-05-10T20:58:12.680Z,94954.06
2023-05-10T21:00:40.584Z,94959.56
2023-05-10T21:03:08.595Z,94960.56
2023-05-10T21:05:36.777Z,94957.41
2023-05-10T21:08:04.826Z,94950.66
2023-05-10T21:10:32.809Z,94946.53
2023-05-10T21:13:02.277Z,94953.03
2023-05-10T21:15:30.374Z,94954.63
2023-05-10T21:17:58.416Z,94948.69
2023-05-10T21:20:29.528Z,94949.09
2023-05-10T21:22:57.808Z,94956.94
2023-05-10T21:25:26.043Z,94953.19
2023-05-10T21:27:53.962Z,94948.44
2023-05-10T21:30:23.474Z,94947.84
2023-05-10T21:32:51.493Z,94936.41
2023-05-10T21:35:19.801Z,94943.69
2023-05-10T21:37:47.717Z,94942.72
2023-05-10T21:40:18.704Z,94938.56
2023-05-10T21:42:52.372Z,94930.09
2023-05-10T21:45:29.211Z,94943.09
2023-05-10T21:48:00.319Z,94943.28
2023-05-10T21:50:28.574Z,94933.47
2023-05-10T21:52:59.730Z,94944.50
2023-05-10T21:55:27.678Z,94939.75
2023-05-10T21:57:55.631Z,94939.56
2023-05-10T22:00:25.423Z,94941.31
2023-05-10T22:02:53.443Z,94941.13
2023-05-10T22:05:26.842Z,94941.31
2023-05-10T22:07:54.666Z,94941.13
2023-05-10T22:10:22.491Z,94937.38
2023-05-10T22:12:50.671Z,94946.44
2023-05-10T22:15:18.691Z,94922.38
2023-05-10T22:17:47.990Z,94939.34
2023-05-10T22:20:19.031Z,94940.31
2023-05-10T22:22:47.071Z,94943.25
2023-05-10T22:25:17.718Z,94936.13
2023-05-10T22:27:50.381Z,94941.84
2023-05-10T22:30:20.042Z,94949.16
2023-05-10T22:32:51.892Z,94945.75
2023-05-10T22:35:22.721Z,94940.84
2023-05-10T22:37:53.594Z,94944.38
2023-05-10T22:40:26.833Z,94936.88
2023-05-10T22:42:56.487Z,94942.22
2023-05-10T22:45:26.255Z,94933.53
2023-05-10T22:47:55.474Z,94942.41
2023-05-10T22:50:23.443Z,94933.50
2023-05-10T22:52:51.303Z,94946.13
2023-05-10T22:55:19.237Z,94933.13
2023-05-10T22:57:47.150Z,94936.22
2023-05-10T23:00:16.154Z,94932.69
2023-05-10T23:02:44.350Z,94935.25
2023-05-10T23:05:13.740Z,94946.09
2023-05-10T23:07:41.585Z,94940.00
2023-05-10T23:10:12.449Z,94938.56
2023-05-10T23:12:40.453Z,94936.00
2023-05-10T23:15:09.531Z,94940.94
2023-05-10T23:17:37.322Z,94936.97
2023-05-10T23:20:05.701Z,94935.25
2023-05-10T23:22:34.955Z,94937.22
2023-05-10T23:25:03.032Z,94925.34
2023-05-10T23:27:31.515Z,94927.53
2023-05-10T23:29:59.510Z,94936.97
2023-05-10T23:32:27.397Z,94939.72
2023-05-10T23:34:55.322Z,94929.06
2023-05-10T23:37:23.142Z,94935.78
2023-05-10T23:39:52.494Z,94920.41
2023-05-10T23:42:20.375Z,94927.53
2023-05-10T23:44:48.348Z,94929.28
2023-05-10T23:47:16.218Z,94923.16
2023-05-10T23:49:44.041Z,94926.56
2023-05-10T23:52:11.932Z,94925.16
2023-05-10T23:54:39.711Z,94919.06
2023-05-10T23:57:08.920Z,94918.88
2023-05-10T23:59:36.734Z,94905.19
